sensor_id;sensor_type;location;lat;lon;timestamp;pressure;altitude;pressure_sealevel;temperature
15062;BMP180;7630;50.306;8.566;2022-11-20T00:03:50;97298.00;;;3.80
15062;BMP180;7630;50.306;8.566;2022-11-20T00:07:51;97305.00;;;3.30
15062;BMP180;7630;50.306;8.566;2022-11-20T00:11:52;97304.00;;;4.50
15062;BMP180;7630;50.306;8.566;2022-11-20T00:15:58;97291.00;;;3.40
15062;BMP180;7630;50.306;8.566;2022-11-20T00:20:00;97294.00;;;5.00
15062;BMP180;7630;50.306;8.566;2022-11-20T00:24:01;97287.00;;;5.00
15062;BMP180;7630;50.306;8.566;2022-11-20T00:28:03;97274.00;;;4.90
15062;BMP180;7630;50.306;8.566;2022-11-20T00:32:05;97279.00;;;5.30
15062;BMP180;7630;50.306;8.566;2022-11-20T00:36:09;97263.00;;;5.30
15062;BMP180;7630;50.306;8.566;2022-11-20T00:40:11;97263.00;;;5.20
15062;BMP180;7630;50.306;8.566;2022-11-20T00:44:12;97266.00;;;3.50
15062;BMP180;7630;50.306;8.566;2022-11-20T00:48:14;97278.00;;;4.70
15062;BMP180;7630;50.306;8.566;2022-11-20T00:52:15;97258.00;;;3.90
15062;BMP180;7630;50.306;8.566;2022-11-20T00:56:18;97267.00;;;4.40
15062;BMP180;7630;50.306;8.566;2022-11-20T01:00:19;97292.00;;;3.80
15062;BMP180;7630;50.306;8.566;2022-11-20T01:04:20;97259.00;;;2.80
15062;BMP180;7630;50.306;8.566;2022-11-20T01:08:22;97265.00;;;3.80
15062;BMP180;7630;50.306;8.566;2022-11-20T01:12:23;97256.00;;;3.00
15062;BMP180;7630;50.306;8.566;2022-11-20T01:16:31;97261.00;;;3.60
15062;BMP180;7630;50.306;8.566;2022-11-20T01:20:28;97261.00;;;5.10
15062;BMP180;7630;50.306;8.566;2022-11-20T01:24:29;97255.00;;;5.10
15062;BMP180;7630;50.306;8.566;2022-11-20T01:28:31;97263.00;;;5.50
15062;BMP180;7630;50.306;8.566;2022-11-20T01:32:32;97256.00;;;4.80
15062;BMP180;7630;50.306;8.566;2022-11-20T01:36:35;97255.00;;;3.90
15062;BMP180;7630;50.306;8.566;2022-11-20T01:40:37;97246.00;;;4.00
15062;BMP180;7630;50.306;8.566;2022-11-20T01:44:53;97256.00;;;3.50
15062;BMP180;7630;50.306;8.566;2022-11-20T01:49:20;97262.00;;;4.40
15062;BMP180;7630;50.306;8.566;2022-11-20T01:53:24;97252.00;;;4.60
15062;BMP180;7630;50.306;8.566;2022-11-20T01:57:28;97235.00;;;4.80
15062;BMP180;7630;50.306;8.566;2022-11-20T02:01:31;97241.00;;;5.00
15062;BMP180;7630;50.306;8.566;2022-11-20T02:05:41;97249.00;;;5.20
15062;BMP180;7630;50.306;8.566;2022-11-20T02:09:43;97254.00;;;4.70
15062;BMP180;7630;50.306;8.566;2022-11-20T02:13:44;97254.00;;;3.40
15062;BMP180;7630;50.306;8.566;2022-11-20T02:17:46;97258.00;;;2.20
15062;BMP180;7630;50.306;8.566;2022-11-20T02:26:02;97257.00;;;4.00
15062;BMP180;7630;50.306;8.566;2022-11-20T02:30:06;97255.00;;;2.30
15062;BMP180;7630;50.306;8.566;2022-11-20T02:34:11;97244.00;;;1.90
15062;BMP180;7630;50.306;8.566;2022-11-20T02:38:13;97241.00;;;1.80
15062;BMP180;7630;50.306;8.566;2022-11-20T02:42:15;97239.00;;;1.10
15062;BMP180;7630;50.306;8.566;2022-11-20T02:46:16;97245.00;;;1.90
15062;BMP180;7630;50.306;8.566;2022-11-20T02:50:17;97243.00;;;1.80
15062;BMP180;7630;50.306;8.566;2022-11-20T02:54:23;97231.00;;;1.30
15062;BMP180;7630;50.306;8.566;2022-11-20T02:58:34;97231.00;;;1.20
15062;BMP180;7630;50.306;8.566;2022-11-20T03:02:36;97237.00;;;1.20
15062;BMP180;7630;50.306;8.566;2022-11-20T03:06:57;97226.00;;;1.60
15062;BMP180;7630;50.306;8.566;2022-11-20T03:11:04;97218.00;;;1.80
15062;BMP180;7630;50.306;8.566;2022-11-20T03:15:06;97219.00;;;2.10
15062;BMP180;7630;50.306;8.566;2022-11-20T03:19:07;97228.00;;;3.40
15062;BMP180;7630;50.306;8.566;2022-11-20T03:23:08;97231.00;;;4.00
15062;BMP180;7630;50.306;8.566;2022-11-20T03:27:09;97232.00;;;4.70
15062;BMP180;7630;50.306;8.566;2022-11-20T03:31:12;97236.00;;;4.70
15062;BMP180;7630;50.306;8.566;2022-11-20T03:35:14;97235.00;;;4.90
15062;BMP180;7630;50.306;8.566;2022-11-20T03:39:15;97227.00;;;4.50
15062;BMP180;7630;50.306;8.566;2022-11-20T03:43:16;97220.00;;;3.00
15062;BMP180;7630;50.306;8.566;2022-11-20T03:47:37;97215.00;;;1.10
15062;BMP180;7630;50.306;8.566;2022-11-20T03:51:58;97206.00;;;1.60
15062;BMP180;7630;50.306;8.566;2022-11-20T03:55:59;97217.00;;;2.40
15062;BMP180;7630;50.306;8.566;2022-11-20T04:00:00;97203.00;;;3.10
15062;BMP180;7630;50.306;8.566;2022-11-20T04:04:01;97200.00;;;3.10
15062;BMP180;7630;50.306;8.566;2022-11-20T04:08:02;97201.00;;;4.10
15062;BMP180;7630;50.306;8.566;2022-11-20T04:12:04;97195.00;;;3.00
15062;BMP180;7630;50.306;8.566;2022-11-20T04:16:08;97201.00;;;3.20
15062;BMP180;7630;50.306;8.566;2022-11-20T04:20:09;97202.00;;;3.60
15062;BMP180;7630;50.306;8.566;2022-11-20T04:24:11;97193.00;;;3.60
15062;BMP180;7630;50.306;8.566;2022-11-20T04:28:12;97199.00;;;4.80
15062;BMP180;7630;50.306;8.566;2022-11-20T04:32:13;97186.00;;;3.40
15062;BMP180;7630;50.306;8.566;2022-11-20T04:36:16;97190.00;;;2.60
15062;BMP180;7630;50.306;8.566;2022-11-20T04:40:17;97182.00;;;3.10
15062;BMP180;7630;50.306;8.566;2022-11-20T04:44:18;97187.00;;;2.00
15062;BMP180;7630;50.306;8.566;2022-11-20T04:48:20;97182.00;;;3.30
15062;BMP180;7630;50.306;8.566;2022-11-20T04:52:21;97193.00;;;4.70
15062;BMP180;7630;50.306;8.566;2022-11-20T04:56:22;97191.00;;;4.60
15062;BMP180;7630;50.306;8.566;2022-11-20T05:00:24;97183.00;;;4.80
15062;BMP180;7630;50.306;8.566;2022-11-20T05:04:25;97178.00;;;5.00
15062;BMP180;7630;50.306;8.566;2022-11-20T05:08:26;97181.00;;;4.90
15062;BMP180;7630;50.306;8.566;2022-11-20T05:12:27;97179.00;;;3.40
15062;BMP180;7630;50.306;8.566;2022-11-20T05:16:29;97197.00;;;4.30
15062;BMP180;7630;50.306;8.566;2022-11-20T05:20:30;97186.00;;;2.90
15062;BMP180;7630;50.306;8.566;2022-11-20T05:24:31;97187.00;;;2.30
15062;BMP180;7630;50.306;8.566;2022-11-20T05:28:33;97197.00;;;1.40
15062;BMP180;7630;50.306;8.566;2022-11-20T05:32:34;97191.00;;;2.00
15062;BMP180;7630;50.306;8.566;2022-11-20T05:36:35;97193.00;;;1.50
15062;BMP180;7630;50.306;8.566;2022-11-20T05:40:36;97195.00;;;1.00
15062;BMP180;7630;50.306;8.566;2022-11-20T05:44:37;97196.00;;;1.70
15062;BMP180;7630;50.306;8.566;2022-11-20T05:48:39;97196.00;;;2.20
15062;BMP180;7630;50.306;8.566;2022-11-20T05:52:41;97200.00;;;3.10
15062;BMP180;7630;50.306;8.566;2022-11-20T05:56:42;97190.00;;;3.90
15062;BMP180;7630;50.306;8.566;2022-11-20T06:00:43;97196.00;;;4.20
15062;BMP180;7630;50.306;8.566;2022-11-20T06:04:44;97199.00;;;4.30
15062;BMP180;7630;50.306;8.566;2022-11-20T06:08:46;97183.00;;;5.00
15062;BMP180;7630;50.306;8.566;2022-11-20T06:12:47;97191.00;;;4.60
15062;BMP180;7630;50.306;8.566;2022-11-20T06:16:48;97177.00;;;5.00
15062;BMP180;7630;50.306;8.566;2022-11-20T06:20:49;97176.00;;;5.20
15062;BMP180;7630;50.306;8.566;2022-11-20T06:24:50;97177.00;;;5.20
15062;BMP180;7630;50.306;8.566;2022-11-20T06:28:52;97174.00;;;5.00
15062;BMP180;7630;50.306;8.566;2022-11-20T06:32:53;97165.00;;;4.60
15062;BMP180;7630;50.306;8.566;2022-11-20T06:36:54;97160.00;;;4.90
15062;BMP180;7630;50.306;8.566;2022-11-20T06:40:55;97150.00;;;5.00
15062;BMP180;7630;50.306;8.566;2022-11-20T06:44:56;97159.00;;;5.00
15062;BMP180;7630;50.306;8.566;2022-11-20T06:48:58;97147.00;;;5.20
15062;BMP180;7630;50.306;8.566;2022-11-20T06:53:03;97161.00;;;5.30
15062;BMP180;7630;50.306;8.566;2022-11-20T06:57:04;97161.00;;;5.40
15062;BMP180;7630;50.306;8.566;2022-11-20T07:01:07;97163.00;;;4.90
15062;BMP180;7630;50.306;8.566;2022-11-20T07:05:09;97176.00;;;4.50
15062;BMP180;7630;50.306;8.566;2022-11-20T07:09:10;97174.00;;;4.90
15062;BMP180;7630;50.306;8.566;2022-11-20T07:13:13;97177.00;;;5.70
15062;BMP180;7630;50.306;8.566;2022-11-20T07:17:14;97185.00;;;5.70
15062;BMP180;7630;50.306;8.566;2022-11-20T07:21:16;97183.00;;;5.70
15062;BMP180;7630;50.306;8.566;2022-11-20T07:25:17;97182.00;;;5.90
15062;BMP180;7630;50.306;8.566;2022-11-20T07:29:18;97183.00;;;5.20
15062;BMP180;7630;50.306;8.566;2022-11-20T07:33:20;97181.00;;;4.60
15062;BMP180;7630;50.306;8.566;2022-11-20T07:37:21;97192.00;;;5.40
15062;BMP180;7630;50.306;8.566;2022-11-20T07:41:22;97191.00;;;5.00
15062;BMP180;7630;50.306;8.566;2022-11-20T07:45:23;97196.00;;;4.00
15062;BMP180;7630;50.306;8.566;2022-11-20T07:49:25;97201.00;;;3.40
15062;BMP180;7630;50.306;8.566;2022-11-20T07:53:26;97215.00;;;3.80
15062;BMP180;7630;50.306;8.566;2022-11-20T07:57:27;97222.00;;;4.30
15062;BMP180;7630;50.306;8.566;2022-11-20T08:01:29;97220.00;;;4.30
15062;BMP180;7630;50.306;8.566;2022-11-20T08:05:30;97218.00;;;5.70
15062;BMP180;7630;50.306;8.566;2022-11-20T08:09:31;97220.00;;;6.00
15062;BMP180;7630;50.306;8.566;2022-11-20T08:13:34;97221.00;;;6.20
15062;BMP180;7630;50.306;8.566;2022-11-20T08:18:05;97220.00;;;6.20
15062;BMP180;7630;50.306;8.566;2022-11-20T08:22:09;97220.00;;;6.00
15062;BMP180;7630;50.306;8.566;2022-11-20T08:26:10;97231.00;;;6.10
15062;BMP180;7630;50.306;8.566;2022-11-20T08:30:12;97228.00;;;6.30
15062;BMP180;7630;50.306;8.566;2022-11-20T08:34:13;97232.00;;;6.70
15062;BMP180;7630;50.306;8.566;2022-11-20T08:38:16;97231.00;;;6.80
15062;BMP180;7630;50.306;8.566;2022-11-20T08:42:17;97231.00;;;6.80
15062;BMP180;7630;50.306;8.566;2022-11-20T08:46:19;97248.00;;;6.80
15062;BMP180;7630;50.306;8.566;2022-11-20T08:50:20;97242.00;;;7.00
15062;BMP180;7630;50.306;8.566;2022-11-20T08:54:21;97243.00;;;7.20
15062;BMP180;7630;50.306;8.566;2022-11-20T08:58:23;97240.00;;;7.30
15062;BMP180;7630;50.306;8.566;2022-11-20T09:02:25;97253.00;;;7.10
15062;BMP180;7630;50.306;8.566;2022-11-20T09:06:28;97237.00;;;6.40
15062;BMP180;7630;50.306;8.566;2022-11-20T09:10:29;97249.00;;;6.90
15062;BMP180;7630;50.306;8.566;2022-11-20T09:14:30;97258.00;;;7.00
15062;BMP180;7630;50.306;8.566;2022-11-20T09:18:32;97252.00;;;7.00
15062;BMP180;7630;50.306;8.566;2022-11-20T09:22:33;97246.00;;;7.70
15062;BMP180;7630;50.306;8.566;2022-11-20T09:26:34;97245.00;;;6.80
15062;BMP180;7630;50.306;8.566;2022-11-20T09:30:36;97245.00;;;6.50
15062;BMP180;7630;50.306;8.566;2022-11-20T09:34:37;97246.00;;;7.00
15062;BMP180;7630;50.306;8.566;2022-11-20T09:38:38;97262.00;;;7.90
15062;BMP180;7630;50.306;8.566;2022-11-20T09:42:48;97253.00;;;8.00
15062;BMP180;7630;50.306;8.566;2022-11-20T09:55:11;97260.00;;;8.80
15062;BMP180;7630;50.306;8.566;2022-11-20T09:59:25;97244.00;;;9.10
15062;BMP180;7630;50.306;8.566;2022-11-20T10:03:41;97248.00;;;8.40
15062;BMP180;7630;50.306;8.566;2022-11-20T10:07:54;97245.00;;;7.60
15062;BMP180;7630;50.306;8.566;2022-11-20T10:12:15;97239.00;;;7.20
15062;BMP180;7630;50.306;8.566;2022-11-20T10:16:34;97259.00;;;7.10
15062;BMP180;7630;50.306;8.566;2022-11-20T10:25:47;97243.00;;;5.30
15062;BMP180;7630;50.306;8.566;2022-11-20T10:29:19;97245.00;;;6.50
15062;BMP180;7630;50.306;8.566;2022-11-20T10:33:24;97238.00;;;5.10
15062;BMP180;7630;50.306;8.566;2022-11-20T10:37:30;97229.00;;;5.80
15062;BMP180;7630;50.306;8.566;2022-11-20T10:41:38;97223.00;;;4.40
15062;BMP180;7630;50.306;8.566;2022-11-20T10:45:48;97220.00;;;4.30
15062;BMP180;7630;50.306;8.566;2022-11-20T10:49:54;97234.00;;;4.50
15062;BMP180;7630;50.306;8.566;2022-11-20T10:54:00;97221.00;;;5.00
15062;BMP180;7630;50.306;8.566;2022-11-20T11:06:32;97197.00;;;4.70
15062;BMP180;7630;50.306;8.566;2022-11-20T11:10:44;97200.00;;;5.60
15062;BMP180;7630;50.306;8.566;2022-11-20T11:14:56;97201.00;;;6.20
15062;BMP180;7630;50.306;8.566;2022-11-20T11:19:05;97213.00;;;6.60
15062;BMP180;7630;50.306;8.566;2022-11-20T11:23:10;97200.00;;;6.90
15062;BMP180;7630;50.306;8.566;2022-11-20T11:27:14;97202.00;;;6.50
15062;BMP180;7630;50.306;8.566;2022-11-20T11:31:32;97186.00;;;7.10
15062;BMP180;7630;50.306;8.566;2022-11-20T11:35:42;97183.00;;;7.10
15062;BMP180;7630;50.306;8.566;2022-11-20T11:39:41;97181.00;;;8.00
15062;BMP180;7630;50.306;8.566;2022-11-20T11:43:57;97181.00;;;8.40
15062;BMP180;7630;50.306;8.566;2022-11-20T11:48:18;97181.00;;;8.10
15062;BMP180;7630;50.306;8.566;2022-11-20T11:52:21;97173.00;;;8.80
15062;BMP180;7630;50.306;8.566;2022-11-20T11:56:24;97175.00;;;8.50
15062;BMP180;7630;50.306;8.566;2022-11-20T12:00:26;97167.00;;;8.20
15062;BMP180;7630;50.306;8.566;2022-11-20T12:08:50;97152.00;;;8.60
15062;BMP180;7630;50.306;8.566;2022-11-20T12:17:14;97162.00;;;8.60
15062;BMP180;7630;50.306;8.566;2022-11-20T12:21:20;97143.00;;;7.60
15062;BMP180;7630;50.306;8.566;2022-11-20T12:42:12;97149.00;;;8.00
15062;BMP180;7630;50.306;8.566;2022-11-20T12:46:34;97149.00;;;8.40
15062;BMP180;7630;50.306;8.566;2022-11-20T13:07:30;97124.00;;;7.20
15062;BMP180;7630;50.306;8.566;2022-11-20T13:11:47;97115.00;;;7.00
15062;BMP180;7630;50.306;8.566;2022-11-20T13:16:06;97118.00;;;7.20
15062;BMP180;7630;50.306;8.566;2022-11-20T13:20:06;97115.00;;;6.10
15062;BMP180;7630;50.306;8.566;2022-11-20T13:28:27;97109.00;;;5.50
15062;BMP180;7630;50.306;8.566;2022-11-20T13:32:29;97101.00;;;5.70
15062;BMP180;7630;50.306;8.566;2022-11-20T13:36:32;97099.00;;;6.10
15062;BMP180;7630;50.306;8.566;2022-11-20T13:40:38;97105.00;;;6.10
15062;BMP180;7630;50.306;8.566;2022-11-20T13:44:46;97109.00;;;6.20
15062;BMP180;7630;50.306;8.566;2022-11-20T13:48:47;97093.00;;;6.40
15062;BMP180;7630;50.306;8.566;2022-11-20T13:53:06;97086.00;;;6.60
15062;BMP180;7630;50.306;8.566;2022-11-20T14:01:32;97070.00;;;6.60
15062;BMP180;7630;50.306;8.566;2022-11-20T14:05:39;97060.00;;;6.50
15062;BMP180;7630;50.306;8.566;2022-11-20T14:09:53;97056.00;;;5.70
15062;BMP180;7630;50.306;8.566;2022-11-20T14:14:16;97062.00;;;6.70
15062;BMP180;7630;50.306;8.566;2022-11-20T14:18:21;97054.00;;;6.90
15062;BMP180;7630;50.306;8.566;2022-11-20T14:22:26;97052.00;;;6.00
15062;BMP180;7630;50.306;8.566;2022-11-20T14:26:27;97042.00;;;5.90
15062;BMP180;7630;50.306;8.566;2022-11-20T14:30:44;97029.00;;;6.00
15062;BMP180;7630;50.306;8.566;2022-11-20T14:34:44;97038.00;;;5.60
15062;BMP180;7630;50.306;8.566;2022-11-20T14:38:46;97035.00;;;5.40
15062;BMP180;7630;50.306;8.566;2022-11-20T14:42:48;97025.00;;;5.60
15062;BMP180;7630;50.306;8.566;2022-11-20T14:46:50;97043.00;;;5.80
15062;BMP180;7630;50.306;8.566;2022-11-20T14:50:52;97020.00;;;5.80
15062;BMP180;7630;50.306;8.566;2022-11-20T14:54:55;97002.00;;;5.60
15062;BMP180;7630;50.306;8.566;2022-11-20T14:58:57;96996.00;;;5.30
15062;BMP180;7630;50.306;8.566;2022-11-20T15:02:58;97002.00;;;5.80
15062;BMP180;7630;50.306;8.566;2022-11-20T15:07:00;96997.00;;;6.00
15062;BMP180;7630;50.306;8.566;2022-11-20T15:11:02;97002.00;;;6.10
15062;BMP180;7630;50.306;8.566;2022-11-20T15:15:04;96998.00;;;6.40
15062;BMP180;7630;50.306;8.566;2022-11-20T15:19:16;96985.00;;;6.40
15062;BMP180;7630;50.306;8.566;2022-11-20T15:23:15;96988.00;;;6.90
15062;BMP180;7630;50.306;8.566;2022-11-20T15:27:19;96979.00;;;6.00
15062;BMP180;7630;50.306;8.566;2022-11-20T15:31:23;96975.00;;;6.00
15062;BMP180;7630;50.306;8.566;2022-11-20T15:35:25;96977.00;;;6.00
15062;BMP180;7630;50.306;8.566;2022-11-20T15:39:26;96976.00;;;5.90
15062;BMP180;7630;50.306;8.566;2022-11-20T15:43:28;96959.00;;;6.10
15062;BMP180;7630;50.306;8.566;2022-11-20T15:47:31;96950.00;;;6.40
15062;BMP180;7630;50.306;8.566;2022-11-20T15:51:35;96945.00;;;5.90
15062;BMP180;7630;50.306;8.566;2022-11-20T15:55:37;96958.00;;;6.30
15062;BMP180;7630;50.306;8.566;2022-11-20T15:59:38;96954.00;;;6.10
15062;BMP180;7630;50.306;8.566;2022-11-20T16:03:41;96937.00;;;6.10
15062;BMP180;7630;50.306;8.566;2022-11-20T16:07:43;96941.00;;;6.50
15062;BMP180;7630;50.306;8.566;2022-11-20T16:11:44;96930.00;;;6.80
15062;BMP180;7630;50.306;8.566;2022-11-20T16:15:55;96926.00;;;6.80
15062;BMP180;7630;50.306;8.566;2022-11-20T16:19:56;96923.00;;;6.00
15062;BMP180;7630;50.306;8.566;2022-11-20T16:23:58;96911.00;;;6.50
15062;BMP180;7630;50.306;8.566;2022-11-20T16:28:01;96910.00;;;6.80
15062;BMP180;7630;50.306;8.566;2022-11-20T16:32:02;96822.00;;;6.50
15062;BMP180;7630;50.306;8.566;2022-11-20T16:36:11;96899.00;;;6.90
15062;BMP180;7630;50.306;8.566;2022-11-20T16:40:13;96902.00;;;6.80
15062;BMP180;7630;50.306;8.566;2022-11-20T16:44:14;96898.00;;;6.60
15062;BMP180;7630;50.306;8.566;2022-11-20T16:48:16;96894.00;;;6.90
15062;BMP180;7630;50.306;8.566;2022-11-20T16:52:17;96890.00;;;7.20
15062;BMP180;7630;50.306;8.566;2022-11-20T16:56:20;96889.00;;;7.40
15062;BMP180;7630;50.306;8.566;2022-11-20T17:00:21;96902.00;;;7.70
15062;BMP180;7630;50.306;8.566;2022-11-20T17:04:23;96913.00;;;6.00
15062;BMP180;7630;50.306;8.566;2022-11-20T17:08:27;96907.00;;;6.10
15062;BMP180;7630;50.306;8.566;2022-11-20T17:12:30;96903.00;;;6.60
15062;BMP180;7630;50.306;8.566;2022-11-20T17:16:32;96898.00;;;6.40
15062;BMP180;7630;50.306;8.566;2022-11-20T17:20:33;96878.00;;;7.10
15062;BMP180;7630;50.306;8.566;2022-11-20T17:24:34;96875.00;;;7.40
15062;BMP180;7630;50.306;8.566;2022-11-20T17:28:37;96868.00;;;7.90
15062;BMP180;7630;50.306;8.566;2022-11-20T17:32:38;96862.00;;;7.90
15062;BMP180;7630;50.306;8.566;2022-11-20T17:36:42;96858.00;;;8.20
15062;BMP180;7630;50.306;8.566;2022-11-20T17:40:46;96847.00;;;8.50
15062;BMP180;7630;50.306;8.566;2022-11-20T17:44:47;96866.00;;;8.60
15062;BMP180;7630;50.306;8.566;2022-11-20T17:48:49;96849.00;;;7.80
15062;BMP180;7630;50.306;8.566;2022-11-20T17:52:50;96842.00;;;8.00
15062;BMP180;7630;50.306;8.566;2022-11-20T17:56:52;96836.00;;;7.40
15062;BMP180;7630;50.306;8.566;2022-11-20T18:01:14;96828.00;;;6.30
15062;BMP180;7630;50.306;8.566;2022-11-20T18:05:15;96822.00;;;7.50
15062;BMP180;7630;50.306;8.566;2022-11-20T18:09:17;96813.00;;;7.90
15062;BMP180;7630;50.306;8.566;2022-11-20T18:13:18;96802.00;;;7.40
15062;BMP180;7630;50.306;8.566;2022-11-20T18:17:19;96795.00;;;7.70
15062;BMP180;7630;50.306;8.566;2022-11-20T18:21:22;96784.00;;;7.10
15062;BMP180;7630;50.306;8.566;2022-11-20T18:25:24;96777.00;;;7.40
15062;BMP180;7630;50.306;8.566;2022-11-20T18:29:26;96769.00;;;7.20
15062;BMP180;7630;50.306;8.566;2022-11-20T18:33:29;96764.00;;;5.60
15062;BMP180;7630;50.306;8.566;2022-11-20T18:37:30;96757.00;;;6.40
15062;BMP180;7630;50.306;8.566;2022-11-20T18:41:32;96760.00;;;6.50
15062;BMP180;7630;50.306;8.566;2022-11-20T18:46:00;96745.00;;;6.30
15062;BMP180;7630;50.306;8.566;2022-11-20T18:49:58;96740.00;;;7.00
15062;BMP180;7630;50.306;8.566;2022-11-20T18:54:01;96707.00;;;6.40
15062;BMP180;7630;50.306;8.566;2022-11-20T18:58:03;96727.00;;;6.40
15062;BMP180;7630;50.306;8.566;2022-11-20T19:02:04;96708.00;;;6.20
15062;BMP180;7630;50.306;8.566;2022-11-20T19:06:12;96709.00;;;6.50
15062;BMP180;7630;50.306;8.566;2022-11-20T19:10:18;96719.00;;;6.50
15062;BMP180;7630;50.306;8.566;2022-11-20T19:14:20;96712.00;;;6.60
15062;BMP180;7630;50.306;8.566;2022-11-20T19:18:21;96706.00;;;6.50
15062;BMP180;7630;50.306;8.566;2022-11-20T19:22:22;96706.00;;;6.10
15062;BMP180;7630;50.306;8.566;2022-11-20T19:26:24;96703.00;;;6.20
15062;BMP180;7630;50.306;8.566;2022-11-20T19:30:26;96702.00;;;6.30
15062;BMP180;7630;50.306;8.566;2022-11-20T19:34:27;96681.00;;;6.10
15062;BMP180;7630;50.306;8.566;2022-11-20T19:38:28;96680.00;;;6.60
15062;BMP180;7630;50.306;8.566;2022-11-20T19:42:30;96669.00;;;6.00
15062;BMP180;7630;50.306;8.566;2022-11-20T19:46:33;96658.00;;;6.30
15062;BMP180;7630;50.306;8.566;2022-11-20T19:50:34;96647.00;;;5.90
15062;BMP180;7630;50.306;8.566;2022-11-20T19:54:36;96636.00;;;6.40
15062;BMP180;7630;50.306;8.566;2022-11-20T19:58:37;96637.00;;;6.70
15062;BMP180;7630;50.306;8.566;2022-11-20T20:02:39;96627.00;;;6.50
15062;BMP180;7630;50.306;8.566;2022-11-20T20:06:42;96628.00;;;6.40
15062;BMP180;7630;50.306;8.566;2022-11-20T20:10:45;96612.00;;;6.60
15062;BMP180;7630;50.306;8.566;2022-11-20T20:14:46;96617.00;;;6.30
15062;BMP180;7630;50.306;8.566;2022-11-20T20:18:58;96607.00;;;6.20
15062;BMP180;7630;50.306;8.566;2022-11-20T20:22:56;96606.00;;;5.90
15062;BMP180;7630;50.306;8.566;2022-11-20T20:26:57;96597.00;;;6.10
15062;BMP180;7630;50.306;8.566;2022-11-20T20:31:10;96596.00;;;6.20
15062;BMP180;7630;50.306;8.566;2022-11-20T20:35:17;96611.00;;;6.50
15062;BMP180;7630;50.306;8.566;2022-11-20T20:39:17;96607.00;;;6.50
15062;BMP180;7630;50.306;8.566;2022-11-20T20:43:19;96612.00;;;7.00
15062;BMP180;7630;50.306;8.566;2022-11-20T20:47:21;96597.00;;;6.60
15062;BMP180;7630;50.306;8.566;2022-11-20T20:51:22;96591.00;;;6.60
15062;BMP180;7630;50.306;8.566;2022-11-20T20:55:23;96591.00;;;6.40
15062;BMP180;7630;50.306;8.566;2022-11-20T20:59:25;96599.00;;;6.90
15062;BMP180;7630;50.306;8.566;2022-11-20T21:03:27;96607.00;;;6.80
15062;BMP180;7630;50.306;8.566;2022-11-20T21:07:30;96601.00;;;6.80
15062;BMP180;7630;50.306;8.566;2022-11-20T21:11:31;96602.00;;;6.50
15062;BMP180;7630;50.306;8.566;2022-11-20T21:15:33;96587.00;;;6.70
15062;BMP180;7630;50.306;8.566;2022-11-20T21:19:34;96594.00;;;7.00
15062;BMP180;7630;50.306;8.566;2022-11-20T21:23:35;96576.00;;;6.50
15062;BMP180;7630;50.306;8.566;2022-11-20T21:27:36;96590.00;;;7.00
15062;BMP180;7630;50.306;8.566;2022-11-20T21:31:37;96601.00;;;7.40
15062;BMP180;7630;50.306;8.566;2022-11-20T21:35:39;96588.00;;;6.80
15062;BMP180;7630;50.306;8.566;2022-11-20T21:39:41;96573.00;;;6.30
15062;BMP180;7630;50.306;8.566;2022-11-20T21:43:44;96587.00;;;6.20
15062;BMP180;7630;50.306;8.566;2022-11-20T21:47:49;96590.00;;;6.90
15062;BMP180;7630;50.306;8.566;2022-11-20T21:51:51;96587.00;;;6.20
15062;BMP180;7630;50.306;8.566;2022-11-20T21:55:54;96588.00;;;6.70
15062;BMP180;7630;50.306;8.566;2022-11-20T21:59:55;96581.00;;;6.40
15062;BMP180;7630;50.306;8.566;2022-11-20T22:03:58;96589.00;;;6.80
15062;BMP180;7630;50.306;8.566;2022-11-20T22:08:00;96577.00;;;6.80
15062;BMP180;7630;50.306;8.566;2022-11-20T22:12:02;96572.00;;;6.70
15062;BMP180;7630;50.306;8.566;2022-11-20T22:16:03;96571.00;;;6.20
15062;BMP180;7630;50.306;8.566;2022-11-20T22:20:05;96579.00;;;6.50
15062;BMP180;7630;50.306;8.566;2022-11-20T22:24:12;96560.00;;;6.60
15062;BMP180;7630;50.306;8.566;2022-11-20T22:28:14;96580.00;;;6.20
15062;BMP180;7630;50.306;8.566;2022-11-20T22:32:15;96574.00;;;6.60
15062;BMP180;7630;50.306;8.566;2022-11-20T22:36:18;96577.00;;;6.50
15062;BMP180;7630;50.306;8.566;2022-11-20T22:40:26;96571.00;;;6.60
15062;BMP180;7630;50.306;8.566;2022-11-20T22:44:30;96586.00;;;6.90
15062;BMP180;7630;50.306;8.566;2022-11-20T22:48:32;96578.00;;;6.40
15062;BMP180;7630;50.306;8.566;2022-11-20T22:52:34;96588.00;;;6.60
15062;BMP180;7630;50.306;8.566;2022-11-20T22:56:35;96574.00;;;6.80
15062;BMP180;7630;50.306;8.566;2022-11-20T23:00:36;96574.00;;;6.50
15062;BMP180;7630;50.306;8.566;2022-11-20T23:04:37;96569.00;;;5.80
15062;BMP180;7630;50.306;8.566;2022-11-20T23:08:39;96568.00;;;5.70
15062;BMP180;7630;50.306;8.566;2022-11-20T23:12:41;96576.00;;;6.30
15062;BMP180;7630;50.306;8.566;2022-11-20T23:16:42;96576.00;;;6.40
15062;BMP180;7630;50.306;8.566;2022-11-20T23:20:44;96579.00;;;6.70
15062;BMP180;7630;50.306;8.566;2022-11-20T23:24:44;96597.00;;;6.70
15062;BMP180;7630;50.306;8.566;2022-11-20T23:28:46;96587.00;;;6.60
15062;BMP180;7630;50.306;8.566;2022-11-20T23:32:48;96568.00;;;6.20
15062;BMP180;7630;50.306;8.566;2022-11-20T23:36:49;96552.00;;;6.40
15062;BMP180;7630;50.306;8.566;2022-11-20T23:40:51;96580.00;;;6.40
15062;BMP180;7630;50.306;8.566;2022-11-20T23:44:53;96573.00;;;5.90
15062;BMP180;7630;50.306;8.566;2022-11-20T23:49:14;96575.00;;;6.20
15062;BMP180;7630;50.306;8.566;2022-11-20T23:53:16;96578.00;;;6.50
15062;BMP180;7630;50.306;8.566;2022-11-20T23:57:17;96582.00;;;6.50
